sensor_id;sensor_type;location;lat;lon;timestamp;temperature;humidity
13713;DHT22;6928;50.546;7.120;2023-08-20T00:01:36;21.40;90.62
13713;DHT22;6928;50.546;7.120;2023-08-20T00:04:04;21.42;90.73
13713;DHT22;6928;50.546;7.120;2023-08-20T00:06:31;21.39;90.57
13713;DHT22;6928;50.546;7.120;2023-08-20T00:09:00;21.26;90.85
13713;DHT22;6928;50.546;7.120;2023-08-20T00:11:28;21.27;90.83
13713;DHT22;6928;50.546;7.120;2023-08-20T00:13:56;21.27;90.93
13713;DHT22;6928;50.546;7.120;2023-08-20T00:16:23;21.30;90.90
13713;DHT22;6928;50.546;7.120;2023-08-20T00:18:51;21.17;91.29
13713;DHT22;6928;50.546;7.120;2023-08-20T00:21:19;21.24;91.05
13713;DHT22;6928;50.546;7.120;2023-08-20T00:23:46;21.23;90.92
13713;DHT22;6928;50.546;7.120;2023-08-20T00:26:15;21.23;90.98
13713;DHT22;6928;50.546;7.120;2023-08-20T00:28:42;21.15;91.20
13713;DHT22;6928;50.546;7.120;2023-08-20T00:31:09;21.30;90.64
13713;DHT22;6928;50.546;7.120;2023-08-20T00:33:35;21.16;90.69
13713;DHT22;6928;50.546;7.120;2023-08-20T00:36:04;21.09;91.14
13713;DHT22;6928;50.546;7.120;2023-08-20T00:38:30;21.10;91.39
13713;DHT22;6928;50.546;7.120;2023-08-20T00:40:57;21.06;91.33
13713;DHT22;6928;50.546;7.120;2023-08-20T00:43:26;21.06;91.26
13713;DHT22;6928;50.546;7.120;2023-08-20T00:45:53;21.19;90.97
13713;DHT22;6928;50.546;7.120;2023-08-20T00:48:19;21.10;91.08
13713;DHT22;6928;50.546;7.120;2023-08-20T00:50:46;21.07;91.34
13713;DHT22;6928;50.546;7.120;2023-08-20T00:53:13;21.10;91.14
13713;DHT22;6928;50.546;7.120;2023-08-20T00:55:42;20.95;91.42
13713;DHT22;6928;50.546;7.120;2023-08-20T00:58:10;20.94;91.52
13713;DHT22;6928;50.546;7.120;2023-08-20T01:00:38;20.94;91.40
13713;DHT22;6928;50.546;7.120;2023-08-20T01:03:06;21.02;91.35
13713;DHT22;6928;50.546;7.120;2023-08-20T01:05:38;21.02;91.11
13713;DHT22;6928;50.546;7.120;2023-08-20T01:08:27;21.03;91.23
13713;DHT22;6928;50.546;7.120;2023-08-20T01:11:03;21.00;91.28
13713;DHT22;6928;50.546;7.120;2023-08-20T01:13:33;20.86;91.34
13713;DHT22;6928;50.546;7.120;2023-08-20T01:16:02;20.98;91.42
13713;DHT22;6928;50.546;7.120;2023-08-20T01:18:29;20.86;91.65
13713;DHT22;6928;50.546;7.120;2023-08-20T01:21:01;20.96;91.29
13713;DHT22;6928;50.546;7.120;2023-08-20T01:24:15;20.85;91.72
13713;DHT22;6928;50.546;7.120;2023-08-20T01:26:56;20.81;91.76
13713;DHT22;6928;50.546;7.120;2023-08-20T01:29:28;20.85;91.81
13713;DHT22;6928;50.546;7.120;2023-08-20T01:31:56;20.79;91.67
13713;DHT22;6928;50.546;7.120;2023-08-20T01:34:23;20.81;91.56
13713;DHT22;6928;50.546;7.120;2023-08-20T01:36:51;20.68;91.58
13713;DHT22;6928;50.546;7.120;2023-08-20T01:39:17;20.67;91.63
13713;DHT22;6928;50.546;7.120;2023-08-20T01:41:44;20.64;91.79
13713;DHT22;6928;50.546;7.120;2023-08-20T01:44:11;20.58;91.89
13713;DHT22;6928;50.546;7.120;2023-08-20T01:46:39;20.64;91.91
13713;DHT22;6928;50.546;7.120;2023-08-20T01:49:06;20.61;91.85
13713;DHT22;6928;50.546;7.120;2023-08-20T01:51:33;20.59;91.79
13713;DHT22;6928;50.546;7.120;2023-08-20T01:53:59;20.62;91.74
13713;DHT22;6928;50.546;7.120;2023-08-20T01:56:27;20.51;91.99
13713;DHT22;6928;50.546;7.120;2023-08-20T01:58:54;20.44;92.30
13713;DHT22;6928;50.546;7.120;2023-08-20T02:01:20;20.34;92.43
13713;DHT22;6928;50.546;7.120;2023-08-20T02:03:48;20.44;92.27
13713;DHT22;6928;50.546;7.120;2023-08-20T02:06:15;20.48;92.17
13713;DHT22;6928;50.546;7.120;2023-08-20T02:08:42;20.40;92.14
13713;DHT22;6928;50.546;7.120;2023-08-20T02:11:08;20.45;92.00
13713;DHT22;6928;50.546;7.120;2023-08-20T02:13:35;20.47;91.95
13713;DHT22;6928;50.546;7.120;2023-08-20T02:16:04;20.40;91.95
13713;DHT22;6928;50.546;7.120;2023-08-20T02:18:32;20.41;91.94
13713;DHT22;6928;50.546;7.120;2023-08-20T02:21:01;20.38;92.00
13713;DHT22;6928;50.546;7.120;2023-08-20T02:23:28;20.26;92.21
13713;DHT22;6928;50.546;7.120;2023-08-20T02:25:55;20.27;92.33
13713;DHT22;6928;50.546;7.120;2023-08-20T02:28:21;20.26;92.70
13713;DHT22;6928;50.546;7.120;2023-08-20T02:30:48;20.30;92.28
13713;DHT22;6928;50.546;7.120;2023-08-20T02:33:15;20.28;92.13
13713;DHT22;6928;50.546;7.120;2023-08-20T02:35:42;20.23;92.16
13713;DHT22;6928;50.546;7.120;2023-08-20T02:38:10;20.23;92.22
13713;DHT22;6928;50.546;7.120;2023-08-20T02:40:41;20.26;92.33
13713;DHT22;6928;50.546;7.120;2023-08-20T02:43:07;20.21;92.39
13713;DHT22;6928;50.546;7.120;2023-08-20T02:45:40;20.27;92.24
13713;DHT22;6928;50.546;7.120;2023-08-20T02:48:07;20.23;92.33
13713;DHT22;6928;50.546;7.120;2023-08-20T02:50:34;20.24;92.30
13713;DHT22;6928;50.546;7.120;2023-08-20T02:53:01;20.18;92.58
13713;DHT22;6928;50.546;7.120;2023-08-20T02:55:30;20.18;92.35
13713;DHT22;6928;50.546;7.120;2023-08-20T02:57:57;20.16;92.25
13713;DHT22;6928;50.546;7.120;2023-08-20T03:00:26;20.13;92.16
13713;DHT22;6928;50.546;7.120;2023-08-20T03:02:54;20.14;92.39
13713;DHT22;6928;50.546;7.120;2023-08-20T03:05:22;20.14;92.15
13713;DHT22;6928;50.546;7.120;2023-08-20T03:07:48;20.17;92.09
13713;DHT22;6928;50.546;7.120;2023-08-20T03:10:16;20.09;92.29
13713;DHT22;6928;50.546;7.120;2023-08-20T03:12:44;20.10;92.43
13713;DHT22;6928;50.546;7.120;2023-08-20T03:15:10;20.10;92.32
13713;DHT22;6928;50.546;7.120;2023-08-20T03:17:37;20.18;92.18
13713;DHT22;6928;50.546;7.120;2023-08-20T03:20:05;20.20;92.14
13713;DHT22;6928;50.546;7.120;2023-08-20T03:22:32;20.18;92.07
13713;DHT22;6928;50.546;7.120;2023-08-20T03:24:59;20.17;92.63
13713;DHT22;6928;50.546;7.120;2023-08-20T03:27:26;20.23;92.40
13713;DHT22;6928;50.546;7.120;2023-08-20T03:29:54;20.20;92.18
13713;DHT22;6928;50.546;7.120;2023-08-20T03:32:21;20.09;92.29
13713;DHT22;6928;50.546;7.120;2023-08-20T03:34:48;20.10;92.42
13713;DHT22;6928;50.546;7.120;2023-08-20T03:37:15;20.06;92.39
13713;DHT22;6928;50.546;7.120;2023-08-20T03:39:42;20.16;92.31
13713;DHT22;6928;50.546;7.120;2023-08-20T03:42:09;20.20;92.30
13713;DHT22;6928;50.546;7.120;2023-08-20T03:44:35;20.13;92.08
13713;DHT22;6928;50.546;7.120;2023-08-20T03:47:04;20.12;92.13
13713;DHT22;6928;50.546;7.120;2023-08-20T03:49:31;20.09;92.12
13713;DHT22;6928;50.546;7.120;2023-08-20T03:51:58;19.99;92.35
13713;DHT22;6928;50.546;7.120;2023-08-20T03:54:27;20.12;92.24
13713;DHT22;6928;50.546;7.120;2023-08-20T03:56:53;20.02;92.17
13713;DHT22;6928;50.546;7.120;2023-08-20T03:59:20;19.95;92.38
13713;DHT22;6928;50.546;7.120;2023-08-20T04:01:47;20.00;92.78
13713;DHT22;6928;50.546;7.120;2023-08-20T04:04:16;19.97;92.18
13713;DHT22;6928;50.546;7.120;2023-08-20T04:06:42;19.73;92.39
13713;DHT22;6928;50.546;7.120;2023-08-20T04:09:09;19.80;92.27
13713;DHT22;6928;50.546;7.120;2023-08-20T04:11:36;19.76;92.34
13713;DHT22;6928;50.546;7.120;2023-08-20T04:14:03;19.79;92.22
13713;DHT22;6928;50.546;7.120;2023-08-20T04:16:30;19.86;92.08
13713;DHT22;6928;50.546;7.120;2023-08-20T04:18:56;19.83;92.00
13713;DHT22;6928;50.546;7.120;2023-08-20T04:21:24;19.72;91.90
13713;DHT22;6928;50.546;7.120;2023-08-20T04:23:51;19.72;92.06
13713;DHT22;6928;50.546;7.120;2023-08-20T04:26:18;19.68;92.39
13713;DHT22;6928;50.546;7.120;2023-08-20T04:28:45;19.73;92.54
13713;DHT22;6928;50.546;7.120;2023-08-20T04:31:12;19.82;92.19
13713;DHT22;6928;50.546;7.120;2023-08-20T04:33:38;19.83;92.22
13713;DHT22;6928;50.546;7.120;2023-08-20T04:36:05;19.82;92.43
13713;DHT22;6928;50.546;7.120;2023-08-20T04:38:33;19.95;92.17
13713;DHT22;6928;50.546;7.120;2023-08-20T04:41:00;19.90;91.95
13713;DHT22;6928;50.546;7.120;2023-08-20T04:43:27;19.86;92.18
13713;DHT22;6928;50.546;7.120;2023-08-20T04:45:53;19.95;92.10
13713;DHT22;6928;50.546;7.120;2023-08-20T04:48:20;20.00;92.01
13713;DHT22;6928;50.546;7.120;2023-08-20T04:50:47;19.95;92.12
13713;DHT22;6928;50.546;7.120;2023-08-20T04:53:14;19.90;92.50
13713;DHT22;6928;50.546;7.120;2023-08-20T04:55:42;20.00;92.27
13713;DHT22;6928;50.546;7.120;2023-08-20T04:58:09;20.03;92.25
13713;DHT22;6928;50.546;7.120;2023-08-20T05:00:35;20.06;91.90
13713;DHT22;6928;50.546;7.120;2023-08-20T05:03:03;20.03;91.86
13713;DHT22;6928;50.546;7.120;2023-08-20T05:05:29;20.00;92.06
13713;DHT22;6928;50.546;7.120;2023-08-20T05:07:56;19.99;92.27
13713;DHT22;6928;50.546;7.120;2023-08-20T05:10:23;20.02;92.15
13713;DHT22;6928;50.546;7.120;2023-08-20T05:12:51;20.10;91.99
13713;DHT22;6928;50.546;7.120;2023-08-20T05:15:18;20.06;92.01
13713;DHT22;6928;50.546;7.120;2023-08-20T05:17:44;20.21;91.75
13713;DHT22;6928;50.546;7.120;2023-08-20T05:20:11;20.14;91.77
13713;DHT22;6928;50.546;7.120;2023-08-20T05:22:38;20.07;92.02
13713;DHT22;6928;50.546;7.120;2023-08-20T05:25:06;20.07;92.26
13713;DHT22;6928;50.546;7.120;2023-08-20T05:27:32;20.05;92.44
13713;DHT22;6928;50.546;7.120;2023-08-20T05:30:01;20.09;92.17
13713;DHT22;6928;50.546;7.120;2023-08-20T05:32:28;20.06;92.36
13713;DHT22;6928;50.546;7.120;2023-08-20T05:34:55;20.06;92.52
13713;DHT22;6928;50.546;7.120;2023-08-20T05:37:22;20.10;92.46
13713;DHT22;6928;50.546;7.120;2023-08-20T05:39:49;20.09;92.65
13713;DHT22;6928;50.546;7.120;2023-08-20T05:42:15;20.07;92.53
13713;DHT22;6928;50.546;7.120;2023-08-20T05:44:42;20.17;92.33
13713;DHT22;6928;50.546;7.120;2023-08-20T05:47:11;20.14;92.27
13713;DHT22;6928;50.546;7.120;2023-08-20T05:49:37;20.16;92.31
13713;DHT22;6928;50.546;7.120;2023-08-20T05:52:04;20.24;92.39
13713;DHT22;6928;50.546;7.120;2023-08-20T05:54:31;20.30;92.05
13713;DHT22;6928;50.546;7.120;2023-08-20T05:56:58;20.43;91.86
13713;DHT22;6928;50.546;7.120;2023-08-20T05:59:25;20.47;91.64
13713;DHT22;6928;50.546;7.120;2023-08-20T06:01:52;20.43;91.44
13713;DHT22;6928;50.546;7.120;2023-08-20T06:04:21;20.38;91.46
13713;DHT22;6928;50.546;7.120;2023-08-20T06:06:47;20.45;91.41
13713;DHT22;6928;50.546;7.120;2023-08-20T06:09:14;20.52;91.30
13713;DHT22;6928;50.546;7.120;2023-08-20T06:11:41;20.44;91.48
13713;DHT22;6928;50.546;7.120;2023-08-20T06:14:08;20.51;91.52
13713;DHT22;6928;50.546;7.120;2023-08-20T06:16:35;20.69;91.00
13713;DHT22;6928;50.546;7.120;2023-08-20T06:19:01;20.61;91.28
13713;DHT22;6928;50.546;7.120;2023-08-20T06:21:29;20.71;91.30
13713;DHT22;6928;50.546;7.120;2023-08-20T06:23:56;20.88;91.01
13713;DHT22;6928;50.546;7.120;2023-08-20T06:26:23;20.79;90.96
13713;DHT22;6928;50.546;7.120;2023-08-20T06:28:50;20.79;91.08
13713;DHT22;6928;50.546;7.120;2023-08-20T06:31:16;20.81;90.86
13713;DHT22;6928;50.546;7.120;2023-08-20T06:33:43;20.75;91.34
13713;DHT22;6928;50.546;7.120;2023-08-20T06:36:10;20.75;90.94
13713;DHT22;6928;50.546;7.120;2023-08-20T06:38:38;20.96;90.72
13713;DHT22;6928;50.546;7.120;2023-08-20T06:41:05;21.09;90.32
13713;DHT22;6928;50.546;7.120;2023-08-20T06:43:32;21.24;90.16
13713;DHT22;6928;50.546;7.120;2023-08-20T06:45:58;21.34;89.86
13713;DHT22;6928;50.546;7.120;2023-08-20T06:48:25;21.44;89.66
13713;DHT22;6928;50.546;7.120;2023-08-20T06:50:52;21.49;88.51
13713;DHT22;6928;50.546;7.120;2023-08-20T06:53:19;21.71;88.83
13713;DHT22;6928;50.546;7.120;2023-08-20T06:55:47;21.79;88.44
13713;DHT22;6928;50.546;7.120;2023-08-20T06:58:13;21.94;88.08
13713;DHT22;6928;50.546;7.120;2023-08-20T07:00:40;21.95;87.47
13713;DHT22;6928;50.546;7.120;2023-08-20T07:03:07;21.98;87.77
13713;DHT22;6928;50.546;7.120;2023-08-20T07:05:35;22.25;87.62
13713;DHT22;6928;50.546;7.120;2023-08-20T07:08:02;22.28;86.52
13713;DHT22;6928;50.546;7.120;2023-08-20T07:10:29;22.08;86.99
13713;DHT22;6928;50.546;7.120;2023-08-20T07:12:57;22.01;87.08
13713;DHT22;6928;50.546;7.120;2023-08-20T07:15:24;22.33;87.37
13713;DHT22;6928;50.546;7.120;2023-08-20T07:17:50;22.36;86.66
13713;DHT22;6928;50.546;7.120;2023-08-20T07:20:17;22.21;86.81
13713;DHT22;6928;50.546;7.120;2023-08-20T07:22:44;22.50;86.75
13713;DHT22;6928;50.546;7.120;2023-08-20T07:25:10;22.32;86.74
13713;DHT22;6928;50.546;7.120;2023-08-20T07:27:37;22.56;86.34
13713;DHT22;6928;50.546;7.120;2023-08-20T07:30:07;22.81;85.80
13713;DHT22;6928;50.546;7.120;2023-08-20T07:32:34;22.42;86.23
13713;DHT22;6928;50.546;7.120;2023-08-20T07:35:00;22.57;85.89
13713;DHT22;6928;50.546;7.120;2023-08-20T07:37:27;22.66;86.18
13713;DHT22;6928;50.546;7.120;2023-08-20T07:39:54;22.79;85.92
13713;DHT22;6928;50.546;7.120;2023-08-20T07:42:21;22.86;85.71
13713;DHT22;6928;50.546;7.120;2023-08-20T07:44:47;22.81;85.60
13713;DHT22;6928;50.546;7.120;2023-08-20T07:47:15;22.92;85.13
13713;DHT22;6928;50.546;7.120;2023-08-20T07:49:42;22.80;85.19
13713;DHT22;6928;50.546;7.120;2023-08-20T07:52:09;23.25;83.89
13713;DHT22;6928;50.546;7.120;2023-08-20T07:54:36;23.24;84.10
13713;DHT22;6928;50.546;7.120;2023-08-20T07:57:02;23.17;84.56
13713;DHT22;6928;50.546;7.120;2023-08-20T07:59:29;23.02;84.75
13713;DHT22;6928;50.546;7.120;2023-08-20T08:01:56;23.12;83.77
13713;DHT22;6928;50.546;7.120;2023-08-20T08:04:24;23.31;84.10
13713;DHT22;6928;50.546;7.120;2023-08-20T08:06:51;23.31;84.25
13713;DHT22;6928;50.546;7.120;2023-08-20T08:09:26;23.72;83.26
13713;DHT22;6928;50.546;7.120;2023-08-20T08:11:53;23.45;83.60
13713;DHT22;6928;50.546;7.120;2023-08-20T08:14:20;23.59;83.12
13713;DHT22;6928;50.546;7.120;2023-08-20T08:16:47;23.58;83.16
13713;DHT22;6928;50.546;7.120;2023-08-20T08:19:14;23.93;81.80
13713;DHT22;6928;50.546;7.120;2023-08-20T08:21:43;24.20;81.03
13713;DHT22;6928;50.546;7.120;2023-08-20T08:24:10;24.11;81.60
13713;DHT22;6928;50.546;7.120;2023-08-20T08:26:37;23.94;82.25
13713;DHT22;6928;50.546;7.120;2023-08-20T08:29:05;23.99;81.27
13713;DHT22;6928;50.546;7.120;2023-08-20T08:31:32;24.07;80.81
13713;DHT22;6928;50.546;7.120;2023-08-20T08:33:59;23.92;80.69
13713;DHT22;6928;50.546;7.120;2023-08-20T08:36:26;24.27;80.50
13713;DHT22;6928;50.546;7.120;2023-08-20T08:38:54;24.21;80.13
13713;DHT22;6928;50.546;7.120;2023-08-20T08:41:22;24.49;79.72
13713;DHT22;6928;50.546;7.120;2023-08-20T08:43:50;24.21;80.84
13713;DHT22;6928;50.546;7.120;2023-08-20T08:46:16;24.09;80.69
13713;DHT22;6928;50.546;7.120;2023-08-20T08:48:45;24.40;80.43
13713;DHT22;6928;50.546;7.120;2023-08-20T08:51:13;24.49;79.29
13713;DHT22;6928;50.546;7.120;2023-08-20T08:53:42;24.37;79.63
13713;DHT22;6928;50.546;7.120;2023-08-20T08:56:11;24.43;80.07
13713;DHT22;6928;50.546;7.120;2023-08-20T08:58:40;25.00;78.88
13713;DHT22;6928;50.546;7.120;2023-08-20T09:01:07;24.90;77.46
13713;DHT22;6928;50.546;7.120;2023-08-20T09:03:34;25.05;77.99
13713;DHT22;6928;50.546;7.120;2023-08-20T09:06:01;24.76;78.80
13713;DHT22;6928;50.546;7.120;2023-08-20T09:08:30;25.02;78.79
13713;DHT22;6928;50.546;7.120;2023-08-20T09:11:00;25.17;77.17
13713;DHT22;6928;50.546;7.120;2023-08-20T09:13:36;24.94;78.08
13713;DHT22;6928;50.546;7.120;2023-08-20T09:16:04;25.22;76.64
13713;DHT22;6928;50.546;7.120;2023-08-20T09:18:33;25.19;76.51
13713;DHT22;6928;50.546;7.120;2023-08-20T09:21:07;25.24;76.77
13713;DHT22;6928;50.546;7.120;2023-08-20T09:23:35;25.51;76.28
13713;DHT22;6928;50.546;7.120;2023-08-20T09:26:04;25.57;76.14
13713;DHT22;6928;50.546;7.120;2023-08-20T09:28:42;25.95;75.26
13713;DHT22;6928;50.546;7.120;2023-08-20T09:31:12;25.74;75.05
13713;DHT22;6928;50.546;7.120;2023-08-20T09:33:49;25.63;75.69
13713;DHT22;6928;50.546;7.120;2023-08-20T09:36:16;25.38;75.77
13713;DHT22;6928;50.546;7.120;2023-08-20T09:38:44;25.41;74.98
13713;DHT22;6928;50.546;7.120;2023-08-20T09:41:12;25.85;75.47
13713;DHT22;6928;50.546;7.120;2023-08-20T09:43:39;25.95;74.76
13713;DHT22;6928;50.546;7.120;2023-08-20T09:46:10;26.15;73.74
13713;DHT22;6928;50.546;7.120;2023-08-20T09:48:38;26.49;73.60
13713;DHT22;6928;50.546;7.120;2023-08-20T09:51:11;26.13;73.46
13713;DHT22;6928;50.546;7.120;2023-08-20T09:53:47;26.22;72.40
13713;DHT22;6928;50.546;7.120;2023-08-20T09:56:21;26.52;73.45
13713;DHT22;6928;50.546;7.120;2023-08-20T09:58:49;26.56;72.75
13713;DHT22;6928;50.546;7.120;2023-08-20T10:01:18;26.77;71.50
13713;DHT22;6928;50.546;7.120;2023-08-20T10:03:45;26.49;72.50
13713;DHT22;6928;50.546;7.120;2023-08-20T10:06:12;26.43;72.30
13713;DHT22;6928;50.546;7.120;2023-08-20T10:08:39;26.50;71.14
13713;DHT22;6928;50.546;7.120;2023-08-20T10:11:06;26.70;71.56
13713;DHT22;6928;50.546;7.120;2023-08-20T10:13:33;26.67;72.76
13713;DHT22;6928;50.546;7.120;2023-08-20T10:16:00;26.90;72.64
13713;DHT22;6928;50.546;7.120;2023-08-20T10:18:28;26.93;71.78
13713;DHT22;6928;50.546;7.120;2023-08-20T10:20:58;27.15;70.13
13713;DHT22;6928;50.546;7.120;2023-08-20T10:23:25;26.93;70.57
13713;DHT22;6928;50.546;7.120;2023-08-20T10:25:52;26.98;70.49
13713;DHT22;6928;50.546;7.120;2023-08-20T10:28:22;26.81;70.28
13713;DHT22;6928;50.546;7.120;2023-08-20T10:31:09;27.00;69.28
13713;DHT22;6928;50.546;7.120;2023-08-20T10:33:48;27.07;68.62
13713;DHT22;6928;50.546;7.120;2023-08-20T10:36:17;27.35;68.24
13713;DHT22;6928;50.546;7.120;2023-08-20T10:38:49;27.49;69.06
13713;DHT22;6928;50.546;7.120;2023-08-20T10:41:16;27.52;67.82
13713;DHT22;6928;50.546;7.120;2023-08-20T10:43:50;27.56;67.38
13713;DHT22;6928;50.546;7.120;2023-08-20T10:46:20;27.41;66.83
13713;DHT22;6928;50.546;7.120;2023-08-20T10:48:50;27.73;66.58
13713;DHT22;6928;50.546;7.120;2023-08-20T10:51:21;27.80;66.38
13713;DHT22;6928;50.546;7.120;2023-08-20T10:54:04;28.20;64.56
13713;DHT22;6928;50.546;7.120;2023-08-20T10:56:40;28.13;64.50
13713;DHT22;6928;50.546;7.120;2023-08-20T10:59:09;27.89;65.42
13713;DHT22;6928;50.546;7.120;2023-08-20T11:01:39;27.79;66.11
13713;DHT22;6928;50.546;7.120;2023-08-20T11:04:09;27.86;65.41
13713;DHT22;6928;50.546;7.120;2023-08-20T11:06:35;27.83;65.39
13713;DHT22;6928;50.546;7.120;2023-08-20T11:09:04;27.90;65.98
13713;DHT22;6928;50.546;7.120;2023-08-20T11:11:32;28.17;65.71
13713;DHT22;6928;50.546;7.120;2023-08-20T11:14:05;28.41;64.77
13713;DHT22;6928;50.546;7.120;2023-08-20T11:16:32;28.49;64.13
13713;DHT22;6928;50.546;7.120;2023-08-20T11:18:59;28.25;64.49
13713;DHT22;6928;50.546;7.120;2023-08-20T11:21:28;28.22;65.14
13713;DHT22;6928;50.546;7.120;2023-08-20T11:23:55;28.27;63.59
13713;DHT22;6928;50.546;7.120;2023-08-20T11:26:21;28.38;63.51
13713;DHT22;6928;50.546;7.120;2023-08-20T11:28:51;28.85;62.07
13713;DHT22;6928;50.546;7.120;2023-08-20T11:31:20;28.65;62.50
13713;DHT22;6928;50.546;7.120;2023-08-20T11:33:46;28.55;62.50
13713;DHT22;6928;50.546;7.120;2023-08-20T11:36:15;28.58;63.01
13713;DHT22;6928;50.546;7.120;2023-08-20T11:38:50;28.42;63.36
13713;DHT22;6928;50.546;7.120;2023-08-20T11:41:17;28.48;62.25
13713;DHT22;6928;50.546;7.120;2023-08-20T11:43:43;28.55;62.94
13713;DHT22;6928;50.546;7.120;2023-08-20T11:46:13;28.64;61.00
13713;DHT22;6928;50.546;7.120;2023-08-20T11:48:59;28.44;61.11
13713;DHT22;6928;50.546;7.120;2023-08-20T11:51:26;28.86;61.21
13713;DHT22;6928;50.546;7.120;2023-08-20T11:53:55;28.98;60.74
13713;DHT22;6928;50.546;7.120;2023-08-20T11:56:22;28.85;60.85
13713;DHT22;6928;50.546;7.120;2023-08-20T11:58:50;29.03;60.78
13713;DHT22;6928;50.546;7.120;2023-08-20T12:01:17;29.25;60.81
13713;DHT22;6928;50.546;7.120;2023-08-20T12:03:44;29.25;60.74
13713;DHT22;6928;50.546;7.120;2023-08-20T12:06:21;29.07;61.34
13713;DHT22;6928;50.546;7.120;2023-08-20T12:08:49;29.16;61.40
13713;DHT22;6928;50.546;7.120;2023-08-20T12:11:17;29.07;60.59
13713;DHT22;6928;50.546;7.120;2023-08-20T12:13:44;29.16;60.03
13713;DHT22;6928;50.546;7.120;2023-08-20T12:16:14;29.26;59.79
13713;DHT22;6928;50.546;7.120;2023-08-20T12:18:41;29.67;58.72
13713;DHT22;6928;50.546;7.120;2023-08-20T12:21:07;29.67;59.14
13713;DHT22;6928;50.546;7.120;2023-08-20T12:23:37;29.06;60.47
13713;DHT22;6928;50.546;7.120;2023-08-20T12:26:04;29.36;60.38
13713;DHT22;6928;50.546;7.120;2023-08-20T12:28:32;29.61;59.36
13713;DHT22;6928;50.546;7.120;2023-08-20T12:30:59;29.43;60.13
13713;DHT22;6928;50.546;7.120;2023-08-20T12:33:26;29.25;60.92
13713;DHT22;6928;50.546;7.120;2023-08-20T12:35:54;29.58;60.54
13713;DHT22;6928;50.546;7.120;2023-08-20T12:38:22;29.37;60.03
13713;DHT22;6928;50.546;7.120;2023-08-20T12:40:48;29.86;58.68
13713;DHT22;6928;50.546;7.120;2023-08-20T12:43:15;29.51;59.19
13713;DHT22;6928;50.546;7.120;2023-08-20T12:45:43;29.06;59.21
13713;DHT22;6928;50.546;7.120;2023-08-20T12:48:10;29.17;60.07
13713;DHT22;6928;50.546;7.120;2023-08-20T12:50:37;29.22;59.51
13713;DHT22;6928;50.546;7.120;2023-08-20T12:53:04;29.41;59.55
13713;DHT22;6928;50.546;7.120;2023-08-20T12:55:30;29.34;59.18
13713;DHT22;6928;50.546;7.120;2023-08-20T12:57:58;29.74;59.28
13713;DHT22;6928;50.546;7.120;2023-08-20T13:00:26;29.31;59.86
13713;DHT22;6928;50.546;7.120;2023-08-20T13:02:55;29.25;58.70
13713;DHT22;6928;50.546;7.120;2023-08-20T13:05:24;29.23;58.11
13713;DHT22;6928;50.546;7.120;2023-08-20T13:07:52;29.23;59.74
13713;DHT22;6928;50.546;7.120;2023-08-20T13:10:21;29.36;59.30
13713;DHT22;6928;50.546;7.120;2023-08-20T13:12:52;29.54;58.71
13713;DHT22;6928;50.546;7.120;2023-08-20T13:15:21;29.51;58.44
13713;DHT22;6928;50.546;7.120;2023-08-20T13:17:49;29.67;58.13
13713;DHT22;6928;50.546;7.120;2023-08-20T13:20:19;29.20;58.95
13713;DHT22;6928;50.546;7.120;2023-08-20T13:22:48;29.11;59.72
13713;DHT22;6928;50.546;7.120;2023-08-20T13:25:15;29.27;59.21
13713;DHT22;6928;50.546;7.120;2023-08-20T13:27:42;29.82;57.83
13713;DHT22;6928;50.546;7.120;2023-08-20T13:30:10;29.91;56.88
13713;DHT22;6928;50.546;7.120;2023-08-20T13:32:37;29.43;58.74
13713;DHT22;6928;50.546;7.120;2023-08-20T13:35:05;29.41;58.66
13713;DHT22;6928;50.546;7.120;2023-08-20T13:37:34;29.40;58.15
13713;DHT22;6928;50.546;7.120;2023-08-20T13:40:01;29.22;58.49
13713;DHT22;6928;50.546;7.120;2023-08-20T13:42:30;29.29;57.35
13713;DHT22;6928;50.546;7.120;2023-08-20T13:44:56;29.34;57.87
13713;DHT22;6928;50.546;7.120;2023-08-20T13:47:23;30.12;55.98
13713;DHT22;6928;50.546;7.120;2023-08-20T13:49:50;30.09;57.58
13713;DHT22;6928;50.546;7.120;2023-08-20T13:52:17;29.81;58.04
13713;DHT22;6928;50.546;7.120;2023-08-20T13:54:45;29.69;59.27
13713;DHT22;6928;50.546;7.120;2023-08-20T13:57:12;29.69;59.70
13713;DHT22;6928;50.546;7.120;2023-08-20T13:59:39;29.65;60.32
13713;DHT22;6928;50.546;7.120;2023-08-20T14:02:06;29.61;58.49
13713;DHT22;6928;50.546;7.120;2023-08-20T14:04:33;29.82;58.98
13713;DHT22;6928;50.546;7.120;2023-08-20T14:07:00;29.81;58.87
13713;DHT22;6928;50.546;7.120;2023-08-20T14:09:27;29.53;58.83
13713;DHT22;6928;50.546;7.120;2023-08-20T14:11:55;29.91;58.12
13713;DHT22;6928;50.546;7.120;2023-08-20T14:14:22;30.22;57.83
13713;DHT22;6928;50.546;7.120;2023-08-20T14:16:49;30.47;57.72
13713;DHT22;6928;50.546;7.120;2023-08-20T14:19:16;30.04;58.59
13713;DHT22;6928;50.546;7.120;2023-08-20T14:21:43;29.84;57.89
13713;DHT22;6928;50.546;7.120;2023-08-20T14:24:09;29.77;59.31
13713;DHT22;6928;50.546;7.120;2023-08-20T14:26:36;29.78;58.56
13713;DHT22;6928;50.546;7.120;2023-08-20T14:29:04;29.62;59.50
13713;DHT22;6928;50.546;7.120;2023-08-20T14:31:32;29.96;58.82
13713;DHT22;6928;50.546;7.120;2023-08-20T14:33:58;30.04;57.63
13713;DHT22;6928;50.546;7.120;2023-08-20T14:36:25;29.75;59.24
13713;DHT22;6928;50.546;7.120;2023-08-20T14:38:52;29.94;58.72
13713;DHT22;6928;50.546;7.120;2023-08-20T14:41:19;29.99;58.50
13713;DHT22;6928;50.546;7.120;2023-08-20T14:43:46;30.16;58.58
13713;DHT22;6928;50.546;7.120;2023-08-20T14:46:14;29.55;59.46
13713;DHT22;6928;50.546;7.120;2023-08-20T14:48:41;29.48;59.70
13713;DHT22;6928;50.546;7.120;2023-08-20T14:51:08;29.64;59.82
13713;DHT22;6928;50.546;7.120;2023-08-20T14:53:35;29.46;59.84
13713;DHT22;6928;50.546;7.120;2023-08-20T14:56:02;29.43;59.63
13713;DHT22;6928;50.546;7.120;2023-08-20T14:58:30;30.12;57.74
13713;DHT22;6928;50.546;7.120;2023-08-20T15:00:57;30.02;59.33
13713;DHT22;6928;50.546;7.120;2023-08-20T15:03:25;29.88;59.98
13713;DHT22;6928;50.546;7.120;2023-08-20T15:05:52;29.80;58.57
13713;DHT22;6928;50.546;7.120;2023-08-20T15:08:19;29.62;58.99
13713;DHT22;6928;50.546;7.120;2023-08-20T15:10:56;29.82;59.87
13713;DHT22;6928;50.546;7.120;2023-08-20T15:13:24;29.96;59.88
13713;DHT22;6928;50.546;7.120;2023-08-20T15:15:51;29.65;59.44
13713;DHT22;6928;50.546;7.120;2023-08-20T15:18:19;29.62;60.03
13713;DHT22;6928;50.546;7.120;2023-08-20T15:20:53;29.47;60.20
13713;DHT22;6928;50.546;7.120;2023-08-20T15:23:22;29.47;61.24
13713;DHT22;6928;50.546;7.120;2023-08-20T15:25:51;29.81;60.50
13713;DHT22;6928;50.546;7.120;2023-08-20T15:28:18;30.17;58.57
13713;DHT22;6928;50.546;7.120;2023-08-20T15:30:45;29.71;59.89
13713;DHT22;6928;50.546;7.120;2023-08-20T15:33:12;29.43;60.81
13713;DHT22;6928;50.546;7.120;2023-08-20T15:35:40;29.40;60.55
13713;DHT22;6928;50.546;7.120;2023-08-20T15:38:08;29.26;60.25
13713;DHT22;6928;50.546;7.120;2023-08-20T15:40:36;29.37;60.36
13713;DHT22;6928;50.546;7.120;2023-08-20T15:43:03;29.13;60.11
13713;DHT22;6928;50.546;7.120;2023-08-20T15:45:30;29.17;60.93
13713;DHT22;6928;50.546;7.120;2023-08-20T15:47:57;29.36;60.58
13713;DHT22;6928;50.546;7.120;2023-08-20T15:50:24;29.03;60.68